CheckWX is a tool to help pilots better visualize weather data.  It is not intended as a substitute for an official pre-flight weather briefing.

18:16:17 UTC

KAPF METAR
Naples Municipal Airport
Naples, Florida, USA
Current

23 mins ago

KAPF 171753Z 17012KT 10SM SCT027 SCT032 28/19 A2999 RMK AO2 SLP155 T02780194 58009
Observed
Feb-17 @ 17:53 UTC
Wind
  • 170° at 12 KTS
Visibility
10 SM
Flight Rules
VFR
Cloud Levels
  • Scattered at 2,700' AGL
  • Scattered at 3,200' AGL
Temperature
28°C / 82°F
Dewpoint
19°C / 66°F
Humidity
58%
Altimeter
29.99" Hg
Pressure
1015.5 hPa
Previous

47 mins ago

KAPF 171729Z 16014G19KT 10SM BKN027 28/21 A3000 RMK AO2 T02780206
Observed
Feb-17 @ 17:29 UTC
Wind
  • 160° at 14 KTS
  • Gusting to 19 KTS
Visibility
10 SM
Flight Rules
MVFR
Cloud Levels
  • Broken at 2,700' AGL
Temperature
28°C / 82°F
Dewpoint
21°C / 70°F
Humidity
66%
Altimeter
30" Hg
Pressure
1015.92 hPa
Previous

1 hour ago

KAPF 171653Z 17011G20KT 10SM SCT025 SCT032 28/21 A3001 RMK AO2 SLP160 T02780206
Observed
Feb-17 @ 16:53 UTC
Wind
  • 170° at 11 KTS
  • Gusting to 20 KTS
Visibility
10 SM
Flight Rules
VFR
Cloud Levels
  • Scattered at 2,500' AGL
  • Scattered at 3,200' AGL
Temperature
28°C / 82°F
Dewpoint
21°C / 70°F
Humidity
66%
Altimeter
30.01" Hg
Pressure
1016 hPa